sensor_id;sensor_type;location;lat;lon;timestamp;P1;durP1;ratioP1;P2;durP2;ratioP2
6517;SDS011;3292;48.944;9.240;2022-12-18T00:02:04;76.03;;;42.67;;
6517;SDS011;3292;48.944;9.240;2022-12-18T00:04:31;65.40;;;38.75;;
6517;SDS011;3292;48.944;9.240;2022-12-18T00:06:57;72.32;;;41.05;;
6517;SDS011;3292;48.944;9.240;2022-12-18T00:09:24;74.47;;;41.13;;
6517;SDS011;3292;48.944;9.240;2022-12-18T00:11:51;75.70;;;41.97;;
6517;SDS011;3292;48.944;9.240;2022-12-18T00:14:18;74.95;;;41.50;;
6517;SDS011;3292;48.944;9.240;2022-12-18T00:16:46;79.18;;;42.15;;
6517;SDS011;3292;48.944;9.240;2022-12-18T00:19:14;72.10;;;39.80;;
6517;SDS011;3292;48.944;9.240;2022-12-18T00:21:41;66.07;;;39.45;;
6517;SDS011;3292;48.944;9.240;2022-12-18T00:24:09;69.93;;;38.13;;
6517;SDS011;3292;48.944;9.240;2022-12-18T00:26:37;68.93;;;38.67;;
6517;SDS011;3292;48.944;9.240;2022-12-18T00:29:06;69.32;;;39.60;;
6517;SDS011;3292;48.944;9.240;2022-12-18T00:31:34;69.47;;;39.97;;
6517;SDS011;3292;48.944;9.240;2022-12-18T00:34:02;71.25;;;39.83;;
6517;SDS011;3292;48.944;9.240;2022-12-18T00:36:31;68.47;;;37.30;;
6517;SDS011;3292;48.944;9.240;2022-12-18T00:39:00;63.50;;;37.97;;
6517;SDS011;3292;48.944;9.240;2022-12-18T00:41:28;64.20;;;38.83;;
6517;SDS011;3292;48.944;9.240;2022-12-18T00:44:13;65.72;;;36.97;;
6517;SDS011;3292;48.944;9.240;2022-12-18T00:46:41;65.82;;;37.17;;
6517;SDS011;3292;48.944;9.240;2022-12-18T00:49:10;65.85;;;35.90;;
6517;SDS011;3292;48.944;9.240;2022-12-18T00:51:40;68.05;;;39.45;;
6517;SDS011;3292;48.944;9.240;2022-12-18T00:54:07;64.72;;;38.10;;
6517;SDS011;3292;48.944;9.240;2022-12-18T00:56:34;73.72;;;39.90;;
6517;SDS011;3292;48.944;9.240;2022-12-18T00:59:02;72.45;;;39.38;;
6517;SDS011;3292;48.944;9.240;2022-12-18T01:01:29;69.50;;;38.95;;
6517;SDS011;3292;48.944;9.240;2022-12-18T01:03:57;64.70;;;37.70;;
6517;SDS011;3292;48.944;9.240;2022-12-18T01:06:26;68.70;;;37.72;;
6517;SDS011;3292;48.944;9.240;2022-12-18T01:08:53;60.58;;;35.95;;
6517;SDS011;3292;48.944;9.240;2022-12-18T01:11:20;72.45;;;38.97;;
6517;SDS011;3292;48.944;9.240;2022-12-18T01:13:48;66.80;;;36.97;;
6517;SDS011;3292;48.944;9.240;2022-12-18T01:16:16;67.38;;;37.22;;
6517;SDS011;3292;48.944;9.240;2022-12-18T01:18:43;64.60;;;37.50;;
6517;SDS011;3292;48.944;9.240;2022-12-18T01:24:34;65.75;;;37.78;;
6517;SDS011;3292;48.944;9.240;2022-12-18T01:27:01;68.97;;;37.95;;
6517;SDS011;3292;48.944;9.240;2022-12-18T01:29:28;69.07;;;37.53;;
6517;SDS011;3292;48.944;9.240;2022-12-18T01:31:55;70.47;;;36.65;;
6517;SDS011;3292;48.944;9.240;2022-12-18T01:34:23;64.55;;;37.53;;
6517;SDS011;3292;48.944;9.240;2022-12-18T01:36:56;66.63;;;38.63;;
6517;SDS011;3292;48.944;9.240;2022-12-18T01:39:22;63.05;;;36.65;;
6517;SDS011;3292;48.944;9.240;2022-12-18T01:41:51;68.68;;;37.58;;
6517;SDS011;3292;48.944;9.240;2022-12-18T01:44:50;70.43;;;39.45;;
6517;SDS011;3292;48.944;9.240;2022-12-18T01:47:23;66.65;;;35.20;;
6517;SDS011;3292;48.944;9.240;2022-12-18T01:49:53;68.80;;;37.15;;
6517;SDS011;3292;48.944;9.240;2022-12-18T01:52:23;74.97;;;39.15;;
6517;SDS011;3292;48.944;9.240;2022-12-18T01:54:56;64.57;;;35.97;;
6517;SDS011;3292;48.944;9.240;2022-12-18T01:57:26;71.25;;;37.47;;
6517;SDS011;3292;48.944;9.240;2022-12-18T01:59:56;72.00;;;38.88;;
6517;SDS011;3292;48.944;9.240;2022-12-18T02:02:30;60.63;;;36.97;;
6517;SDS011;3292;48.944;9.240;2022-12-18T02:05:02;67.68;;;38.70;;
6517;SDS011;3292;48.944;9.240;2022-12-18T02:07:37;74.22;;;38.40;;
6517;SDS011;3292;48.944;9.240;2022-12-18T02:10:27;64.50;;;37.10;;
6517;SDS011;3292;48.944;9.240;2022-12-18T02:13:06;70.75;;;38.03;;
6517;SDS011;3292;48.944;9.240;2022-12-18T02:15:44;71.28;;;38.47;;
6517;SDS011;3292;48.944;9.240;2022-12-18T02:18:22;71.43;;;37.42;;
6517;SDS011;3292;48.944;9.240;2022-12-18T02:20:59;75.03;;;35.85;;
6517;SDS011;3292;48.944;9.240;2022-12-18T02:23:41;71.65;;;37.28;;
6517;SDS011;3292;48.944;9.240;2022-12-18T02:26:25;73.10;;;37.85;;
6517;SDS011;3292;48.944;9.240;2022-12-18T02:29:00;67.80;;;36.67;;
6517;SDS011;3292;48.944;9.240;2022-12-18T02:31:42;72.15;;;38.15;;
6517;SDS011;3292;48.944;9.240;2022-12-18T02:34:13;67.93;;;38.50;;
6517;SDS011;3292;48.944;9.240;2022-12-18T02:36:41;74.78;;;38.47;;
6517;SDS011;3292;48.944;9.240;2022-12-18T02:39:10;65.50;;;38.33;;
6517;SDS011;3292;48.944;9.240;2022-12-18T02:41:41;66.53;;;35.17;;
6517;SDS011;3292;48.944;9.240;2022-12-18T02:44:09;72.57;;;37.85;;
6517;SDS011;3292;48.944;9.240;2022-12-18T02:46:38;67.70;;;36.33;;
6517;SDS011;3292;48.944;9.240;2022-12-18T02:49:11;68.55;;;36.80;;
6517;SDS011;3292;48.944;9.240;2022-12-18T02:51:49;72.20;;;36.75;;
6517;SDS011;3292;48.944;9.240;2022-12-18T02:57:24;75.97;;;38.08;;
6517;SDS011;3292;48.944;9.240;2022-12-18T03:00:00;64.57;;;36.38;;
6517;SDS011;3292;48.944;9.240;2022-12-18T03:02:33;65.32;;;36.55;;
6517;SDS011;3292;48.944;9.240;2022-12-18T03:05:07;73.28;;;38.25;;
6517;SDS011;3292;48.944;9.240;2022-12-18T03:07:38;66.88;;;34.60;;
6517;SDS011;3292;48.944;9.240;2022-12-18T03:10:09;71.65;;;36.83;;
6517;SDS011;3292;48.944;9.240;2022-12-18T03:12:45;58.75;;;36.28;;
6517;SDS011;3292;48.944;9.240;2022-12-18T03:15:18;64.95;;;36.53;;
6517;SDS011;3292;48.944;9.240;2022-12-18T03:17:50;63.72;;;34.90;;
6517;SDS011;3292;48.944;9.240;2022-12-18T03:20:23;68.30;;;35.15;;
6517;SDS011;3292;48.944;9.240;2022-12-18T03:22:53;66.28;;;35.15;;
6517;SDS011;3292;48.944;9.240;2022-12-18T03:25:26;68.60;;;35.28;;
6517;SDS011;3292;48.944;9.240;2022-12-18T03:27:55;71.32;;;36.45;;
6517;SDS011;3292;48.944;9.240;2022-12-18T03:30:24;64.97;;;35.13;;
6517;SDS011;3292;48.944;9.240;2022-12-18T03:32:56;71.88;;;34.50;;
6517;SDS011;3292;48.944;9.240;2022-12-18T03:35:29;69.88;;;34.88;;
6517;SDS011;3292;48.944;9.240;2022-12-18T03:38:01;66.25;;;35.38;;
6517;SDS011;3292;48.944;9.240;2022-12-18T03:40:29;64.20;;;33.88;;
6517;SDS011;3292;48.944;9.240;2022-12-18T03:43:06;65.10;;;34.65;;
6517;SDS011;3292;48.944;9.240;2022-12-18T03:45:38;63.78;;;34.17;;
6517;SDS011;3292;48.944;9.240;2022-12-18T03:48:16;70.30;;;34.70;;
6517;SDS011;3292;48.944;9.240;2022-12-18T03:50:52;60.72;;;33.00;;
6517;SDS011;3292;48.944;9.240;2022-12-18T03:53:25;67.88;;;36.38;;
6517;SDS011;3292;48.944;9.240;2022-12-18T03:55:59;63.70;;;33.45;;
6517;SDS011;3292;48.944;9.240;2022-12-18T03:58:29;58.97;;;33.60;;
6517;SDS011;3292;48.944;9.240;2022-12-18T04:00:59;69.20;;;33.55;;
6517;SDS011;3292;48.944;9.240;2022-12-18T04:03:38;69.57;;;34.80;;
6517;SDS011;3292;48.944;9.240;2022-12-18T04:06:06;57.17;;;32.35;;
6517;SDS011;3292;48.944;9.240;2022-12-18T04:08:34;56.03;;;32.35;;
6517;SDS011;3292;48.944;9.240;2022-12-18T04:11:01;57.40;;;33.65;;
6517;SDS011;3292;48.944;9.240;2022-12-18T04:13:32;55.15;;;32.42;;
6517;SDS011;3292;48.944;9.240;2022-12-18T04:16:01;55.63;;;32.53;;
6517;SDS011;3292;48.944;9.240;2022-12-18T04:18:27;55.85;;;33.13;;
6517;SDS011;3292;48.944;9.240;2022-12-18T04:20:54;53.85;;;30.45;;
6517;SDS011;3292;48.944;9.240;2022-12-18T04:23:21;53.88;;;30.25;;
6517;SDS011;3292;48.944;9.240;2022-12-18T04:25:48;53.75;;;31.85;;
6517;SDS011;3292;48.944;9.240;2022-12-18T04:28:15;55.08;;;31.83;;
6517;SDS011;3292;48.944;9.240;2022-12-18T04:30:43;55.25;;;30.25;;
6517;SDS011;3292;48.944;9.240;2022-12-18T04:33:17;50.22;;;29.63;;
6517;SDS011;3292;48.944;9.240;2022-12-18T04:35:44;55.50;;;29.08;;
6517;SDS011;3292;48.944;9.240;2022-12-18T04:38:11;51.30;;;27.60;;
6517;SDS011;3292;48.944;9.240;2022-12-18T04:40:38;53.72;;;28.98;;
6517;SDS011;3292;48.944;9.240;2022-12-18T04:43:05;54.38;;;31.23;;
6517;SDS011;3292;48.944;9.240;2022-12-18T04:45:32;51.03;;;29.05;;
6517;SDS011;3292;48.944;9.240;2022-12-18T04:48:01;41.65;;;27.10;;
6517;SDS011;3292;48.944;9.240;2022-12-18T04:50:29;59.40;;;30.90;;
6517;SDS011;3292;48.944;9.240;2022-12-18T04:52:58;56.00;;;30.33;;
6517;SDS011;3292;48.944;9.240;2022-12-18T04:55:28;52.83;;;29.73;;
6517;SDS011;3292;48.944;9.240;2022-12-18T04:57:55;47.20;;;27.05;;
6517;SDS011;3292;48.944;9.240;2022-12-18T05:00:21;48.35;;;27.42;;
6517;SDS011;3292;48.944;9.240;2022-12-18T05:02:49;50.35;;;28.50;;
6517;SDS011;3292;48.944;9.240;2022-12-18T05:05:17;42.13;;;25.98;;
6517;SDS011;3292;48.944;9.240;2022-12-18T05:07:44;50.72;;;27.60;;
6517;SDS011;3292;48.944;9.240;2022-12-18T05:10:11;43.42;;;25.15;;
6517;SDS011;3292;48.944;9.240;2022-12-18T05:12:37;40.78;;;25.27;;
6517;SDS011;3292;48.944;9.240;2022-12-18T05:15:23;44.33;;;25.83;;
6517;SDS011;3292;48.944;9.240;2022-12-18T05:17:50;41.45;;;25.40;;
6517;SDS011;3292;48.944;9.240;2022-12-18T05:20:18;40.38;;;24.95;;
6517;SDS011;3292;48.944;9.240;2022-12-18T05:22:45;39.30;;;23.70;;
6517;SDS011;3292;48.944;9.240;2022-12-18T05:25:12;45.33;;;24.35;;
6517;SDS011;3292;48.944;9.240;2022-12-18T05:27:38;42.38;;;24.13;;
6517;SDS011;3292;48.944;9.240;2022-12-18T05:30:06;42.35;;;24.15;;
6517;SDS011;3292;48.944;9.240;2022-12-18T05:32:33;39.65;;;24.17;;
6517;SDS011;3292;48.944;9.240;2022-12-18T05:35:00;39.63;;;24.02;;
6517;SDS011;3292;48.944;9.240;2022-12-18T05:37:28;45.10;;;24.88;;
6517;SDS011;3292;48.944;9.240;2022-12-18T05:39:55;41.65;;;24.08;;
6517;SDS011;3292;48.944;9.240;2022-12-18T05:42:22;45.60;;;25.35;;
6517;SDS011;3292;48.944;9.240;2022-12-18T05:44:48;44.20;;;25.75;;
6517;SDS011;3292;48.944;9.240;2022-12-18T05:47:15;39.60;;;23.85;;
6517;SDS011;3292;48.944;9.240;2022-12-18T05:49:42;39.30;;;24.73;;
6517;SDS011;3292;48.944;9.240;2022-12-18T05:52:09;38.22;;;23.70;;
6517;SDS011;3292;48.944;9.240;2022-12-18T05:54:37;38.00;;;22.92;;
6517;SDS011;3292;48.944;9.240;2022-12-18T05:57:04;39.83;;;23.38;;
6517;SDS011;3292;48.944;9.240;2022-12-18T05:59:31;42.30;;;25.17;;
6517;SDS011;3292;48.944;9.240;2022-12-18T06:01:58;37.95;;;23.15;;
6517;SDS011;3292;48.944;9.240;2022-12-18T06:04:26;40.13;;;25.23;;
6517;SDS011;3292;48.944;9.240;2022-12-18T06:06:56;45.13;;;27.25;;
6517;SDS011;3292;48.944;9.240;2022-12-18T06:09:22;42.33;;;24.75;;
6517;SDS011;3292;48.944;9.240;2022-12-18T06:11:52;43.10;;;23.58;;
6517;SDS011;3292;48.944;9.240;2022-12-18T06:14:18;37.03;;;23.23;;
6517;SDS011;3292;48.944;9.240;2022-12-18T06:16:45;37.92;;;23.00;;
6517;SDS011;3292;48.944;9.240;2022-12-18T06:19:13;39.38;;;23.77;;
6517;SDS011;3292;48.944;9.240;2022-12-18T06:21:41;41.15;;;23.48;;
6517;SDS011;3292;48.944;9.240;2022-12-18T06:24:08;41.17;;;23.48;;
6517;SDS011;3292;48.944;9.240;2022-12-18T06:26:36;40.83;;;24.70;;
6517;SDS011;3292;48.944;9.240;2022-12-18T06:29:05;36.97;;;23.83;;
6517;SDS011;3292;48.944;9.240;2022-12-18T06:31:32;43.58;;;24.33;;
6517;SDS011;3292;48.944;9.240;2022-12-18T06:33:59;37.03;;;23.85;;
6517;SDS011;3292;48.944;9.240;2022-12-18T06:36:28;44.53;;;24.10;;
6517;SDS011;3292;48.944;9.240;2022-12-18T06:38:55;43.13;;;25.00;;
6517;SDS011;3292;48.944;9.240;2022-12-18T06:41:22;39.85;;;23.33;;
6517;SDS011;3292;48.944;9.240;2022-12-18T06:43:49;39.53;;;24.83;;
6517;SDS011;3292;48.944;9.240;2022-12-18T06:46:18;44.42;;;25.15;;
6517;SDS011;3292;48.944;9.240;2022-12-18T06:48:46;38.08;;;23.80;;
6517;SDS011;3292;48.944;9.240;2022-12-18T06:51:15;41.85;;;24.15;;
6517;SDS011;3292;48.944;9.240;2022-12-18T06:53:43;38.03;;;23.50;;
6517;SDS011;3292;48.944;9.240;2022-12-18T06:56:10;43.67;;;24.02;;
6517;SDS011;3292;48.944;9.240;2022-12-18T06:58:37;47.60;;;27.95;;
6517;SDS011;3292;48.944;9.240;2022-12-18T07:01:04;48.35;;;27.05;;
6517;SDS011;3292;48.944;9.240;2022-12-18T07:03:34;41.40;;;26.05;;
6517;SDS011;3292;48.944;9.240;2022-12-18T07:06:01;41.30;;;25.92;;
6517;SDS011;3292;48.944;9.240;2022-12-18T07:08:28;36.55;;;23.27;;
6517;SDS011;3292;48.944;9.240;2022-12-18T07:10:55;42.13;;;24.27;;
6517;SDS011;3292;48.944;9.240;2022-12-18T07:13:22;42.38;;;24.75;;
6517;SDS011;3292;48.944;9.240;2022-12-18T07:15:49;42.67;;;24.98;;
6517;SDS011;3292;48.944;9.240;2022-12-18T07:18:17;41.63;;;24.80;;
6517;SDS011;3292;48.944;9.240;2022-12-18T07:20:45;44.80;;;24.98;;
6517;SDS011;3292;48.944;9.240;2022-12-18T07:23:12;43.55;;;24.85;;
6517;SDS011;3292;48.944;9.240;2022-12-18T07:25:39;44.40;;;25.17;;
6517;SDS011;3292;48.944;9.240;2022-12-18T07:28:06;42.25;;;24.67;;
6517;SDS011;3292;48.944;9.240;2022-12-18T07:30:32;45.65;;;26.02;;
6517;SDS011;3292;48.944;9.240;2022-12-18T07:32:59;40.83;;;25.52;;
6517;SDS011;3292;48.944;9.240;2022-12-18T07:35:26;47.50;;;24.63;;
6517;SDS011;3292;48.944;9.240;2022-12-18T07:37:54;43.38;;;26.13;;
6517;SDS011;3292;48.944;9.240;2022-12-18T07:40:21;48.35;;;25.20;;
6517;SDS011;3292;48.944;9.240;2022-12-18T07:42:48;47.33;;;24.83;;
6517;SDS011;3292;48.944;9.240;2022-12-18T07:45:15;40.83;;;24.67;;
6517;SDS011;3292;48.944;9.240;2022-12-18T07:47:41;45.97;;;27.33;;
6517;SDS011;3292;48.944;9.240;2022-12-18T07:50:08;50.42;;;27.05;;
6517;SDS011;3292;48.944;9.240;2022-12-18T07:52:35;45.10;;;26.38;;
6517;SDS011;3292;48.944;9.240;2022-12-18T07:55:04;51.42;;;27.75;;
6517;SDS011;3292;48.944;9.240;2022-12-18T07:57:31;47.53;;;26.92;;
6517;SDS011;3292;48.944;9.240;2022-12-18T07:59:58;49.17;;;27.40;;
6517;SDS011;3292;48.944;9.240;2022-12-18T08:02:24;50.70;;;27.33;;
6517;SDS011;3292;48.944;9.240;2022-12-18T08:04:51;45.95;;;24.63;;
6517;SDS011;3292;48.944;9.240;2022-12-18T08:07:19;46.03;;;25.48;;
6517;SDS011;3292;48.944;9.240;2022-12-18T08:09:45;43.65;;;26.27;;
6517;SDS011;3292;48.944;9.240;2022-12-18T08:12:13;41.88;;;25.33;;
6517;SDS011;3292;48.944;9.240;2022-12-18T08:14:40;44.60;;;25.50;;
6517;SDS011;3292;48.944;9.240;2022-12-18T08:17:07;49.97;;;28.20;;
6517;SDS011;3292;48.944;9.240;2022-12-18T08:19:34;43.10;;;26.90;;
6517;SDS011;3292;48.944;9.240;2022-12-18T08:22:01;49.13;;;28.10;;
6517;SDS011;3292;48.944;9.240;2022-12-18T08:24:27;49.00;;;27.45;;
6517;SDS011;3292;48.944;9.240;2022-12-18T08:26:54;44.78;;;25.52;;
6517;SDS011;3292;48.944;9.240;2022-12-18T08:29:23;47.28;;;27.13;;
6517;SDS011;3292;48.944;9.240;2022-12-18T08:31:50;49.03;;;27.00;;
6517;SDS011;3292;48.944;9.240;2022-12-18T08:34:17;39.33;;;25.58;;
6517;SDS011;3292;48.944;9.240;2022-12-18T08:36:43;43.00;;;24.60;;
6517;SDS011;3292;48.944;9.240;2022-12-18T08:39:10;46.17;;;28.00;;
6517;SDS011;3292;48.944;9.240;2022-12-18T08:41:37;49.15;;;26.40;;
6517;SDS011;3292;48.944;9.240;2022-12-18T08:44:04;41.53;;;26.02;;
6517;SDS011;3292;48.944;9.240;2022-12-18T08:46:49;38.05;;;23.42;;
6517;SDS011;3292;48.944;9.240;2022-12-18T08:49:16;49.55;;;28.10;;
6517;SDS011;3292;48.944;9.240;2022-12-18T08:51:44;43.58;;;26.65;;
6517;SDS011;3292;48.944;9.240;2022-12-18T08:54:11;47.83;;;27.67;;
6517;SDS011;3292;48.944;9.240;2022-12-18T08:56:38;45.88;;;28.33;;
6517;SDS011;3292;48.944;9.240;2022-12-18T08:59:05;50.38;;;28.60;;
6517;SDS011;3292;48.944;9.240;2022-12-18T09:01:32;43.78;;;26.52;;
6517;SDS011;3292;48.944;9.240;2022-12-18T09:04:00;43.90;;;26.98;;
6517;SDS011;3292;48.944;9.240;2022-12-18T09:06:27;50.47;;;27.70;;
6517;SDS011;3292;48.944;9.240;2022-12-18T09:08:53;42.33;;;24.38;;
6517;SDS011;3292;48.944;9.240;2022-12-18T09:11:21;47.03;;;25.77;;
6517;SDS011;3292;48.944;9.240;2022-12-18T09:13:49;46.17;;;26.67;;
6517;SDS011;3292;48.944;9.240;2022-12-18T09:16:16;48.85;;;26.50;;
6517;SDS011;3292;48.944;9.240;2022-12-18T09:18:44;46.87;;;26.57;;
6517;SDS011;3292;48.944;9.240;2022-12-18T09:21:13;47.08;;;28.40;;
6517;SDS011;3292;48.944;9.240;2022-12-18T09:23:41;47.43;;;27.73;;
6517;SDS011;3292;48.944;9.240;2022-12-18T09:26:08;45.00;;;27.15;;
6517;SDS011;3292;48.944;9.240;2022-12-18T09:28:35;44.63;;;26.20;;
6517;SDS011;3292;48.944;9.240;2022-12-18T09:31:03;46.37;;;26.73;;
6517;SDS011;3292;48.944;9.240;2022-12-18T09:33:32;50.07;;;28.03;;
6517;SDS011;3292;48.944;9.240;2022-12-18T09:36:00;45.90;;;27.30;;
6517;SDS011;3292;48.944;9.240;2022-12-18T09:38:29;44.72;;;26.17;;
6517;SDS011;3292;48.944;9.240;2022-12-18T09:40:57;49.80;;;28.40;;
6517;SDS011;3292;48.944;9.240;2022-12-18T09:43:28;51.37;;;29.10;;
6517;SDS011;3292;48.944;9.240;2022-12-18T09:46:01;49.83;;;29.97;;
6517;SDS011;3292;48.944;9.240;2022-12-18T09:48:31;50.47;;;30.20;;
6517;SDS011;3292;48.944;9.240;2022-12-18T09:51:02;57.47;;;31.47;;
6517;SDS011;3292;48.944;9.240;2022-12-18T09:53:37;49.07;;;27.70;;
6517;SDS011;3292;48.944;9.240;2022-12-18T09:56:05;47.27;;;27.60;;
6517;SDS011;3292;48.944;9.240;2022-12-18T09:58:39;51.30;;;30.30;;
6517;SDS011;3292;48.944;9.240;2022-12-18T10:01:09;57.90;;;31.00;;
6517;SDS011;3292;48.944;9.240;2022-12-18T10:03:37;53.43;;;29.83;;
6517;SDS011;3292;48.944;9.240;2022-12-18T10:06:05;51.87;;;28.93;;
6517;SDS011;3292;48.944;9.240;2022-12-18T10:08:39;45.63;;;27.80;;
6517;SDS011;3292;48.944;9.240;2022-12-18T10:11:19;54.97;;;29.37;;
6517;SDS011;3292;48.944;9.240;2022-12-18T10:13:59;52.93;;;28.03;;
6517;SDS011;3292;48.944;9.240;2022-12-18T10:16:31;46.30;;;27.83;;
6517;SDS011;3292;48.944;9.240;2022-12-18T10:19:07;47.43;;;26.80;;
6517;SDS011;3292;48.944;9.240;2022-12-18T10:21:45;49.83;;;27.47;;
6517;SDS011;3292;48.944;9.240;2022-12-18T10:24:20;48.73;;;27.37;;
6517;SDS011;3292;48.944;9.240;2022-12-18T10:26:58;51.13;;;29.70;;
6517;SDS011;3292;48.944;9.240;2022-12-18T10:29:34;53.97;;;28.40;;
6517;SDS011;3292;48.944;9.240;2022-12-18T10:32:01;49.17;;;28.50;;
6517;SDS011;3292;48.944;9.240;2022-12-18T10:34:28;47.33;;;29.07;;
6517;SDS011;3292;48.944;9.240;2022-12-18T10:36:57;49.93;;;28.87;;
6517;SDS011;3292;48.944;9.240;2022-12-18T10:39:33;45.33;;;27.43;;
6517;SDS011;3292;48.944;9.240;2022-12-18T10:42:09;44.50;;;27.27;;
6517;SDS011;3292;48.944;9.240;2022-12-18T10:44:38;42.40;;;26.17;;
6517;SDS011;3292;48.944;9.240;2022-12-18T10:47:05;47.70;;;27.03;;
6517;SDS011;3292;48.944;9.240;2022-12-18T10:49:38;49.63;;;28.57;;
6517;SDS011;3292;48.944;9.240;2022-12-18T10:52:14;50.57;;;27.30;;
6517;SDS011;3292;48.944;9.240;2022-12-18T10:54:47;46.43;;;28.33;;
6517;SDS011;3292;48.944;9.240;2022-12-18T10:57:17;51.30;;;29.13;;
6517;SDS011;3292;48.944;9.240;2022-12-18T10:59:56;50.43;;;29.33;;
6517;SDS011;3292;48.944;9.240;2022-12-18T11:02:27;49.53;;;29.23;;
6517;SDS011;3292;48.944;9.240;2022-12-18T11:05:00;54.70;;;31.43;;
6517;SDS011;3292;48.944;9.240;2022-12-18T11:07:29;57.10;;;30.97;;
6517;SDS011;3292;48.944;9.240;2022-12-18T11:10:17;60.20;;;33.63;;
6517;SDS011;3292;48.944;9.240;2022-12-18T11:12:44;60.00;;;31.87;;
6517;SDS011;3292;48.944;9.240;2022-12-18T11:15:15;48.17;;;28.90;;
6517;SDS011;3292;48.944;9.240;2022-12-18T11:17:45;50.60;;;28.60;;
6517;SDS011;3292;48.944;9.240;2022-12-18T11:20:19;48.83;;;27.83;;
6517;SDS011;3292;48.944;9.240;2022-12-18T11:22:54;50.80;;;29.57;;
6517;SDS011;3292;48.944;9.240;2022-12-18T11:25:27;51.67;;;29.77;;
6517;SDS011;3292;48.944;9.240;2022-12-18T11:27:55;52.07;;;27.87;;
6517;SDS011;3292;48.944;9.240;2022-12-18T11:30:24;53.53;;;29.47;;
6517;SDS011;3292;48.944;9.240;2022-12-18T11:32:54;46.67;;;28.10;;
6517;SDS011;3292;48.944;9.240;2022-12-18T11:35:32;49.70;;;29.53;;
6517;SDS011;3292;48.944;9.240;2022-12-18T11:38:14;52.47;;;29.10;;
6517;SDS011;3292;48.944;9.240;2022-12-18T11:40:50;54.87;;;29.90;;
6517;SDS011;3292;48.944;9.240;2022-12-18T11:43:22;53.13;;;30.83;;
6517;SDS011;3292;48.944;9.240;2022-12-18T11:45:59;51.40;;;28.83;;
6517;SDS011;3292;48.944;9.240;2022-12-18T11:48:29;51.27;;;28.87;;
6517;SDS011;3292;48.944;9.240;2022-12-18T11:50:59;50.37;;;29.27;;
6517;SDS011;3292;48.944;9.240;2022-12-18T11:53:29;46.23;;;28.70;;
6517;SDS011;3292;48.944;9.240;2022-12-18T11:56:01;47.87;;;28.00;;
6517;SDS011;3292;48.944;9.240;2022-12-18T11:58:39;44.87;;;26.53;;
6517;SDS011;3292;48.944;9.240;2022-12-18T12:01:15;47.63;;;28.17;;
6517;SDS011;3292;48.944;9.240;2022-12-18T12:03:57;49.23;;;27.40;;
6517;SDS011;3292;48.944;9.240;2022-12-18T12:06:42;48.13;;;27.53;;
6517;SDS011;3292;48.944;9.240;2022-12-18T12:09:18;48.87;;;28.27;;
6517;SDS011;3292;48.944;9.240;2022-12-18T12:11:56;43.97;;;26.77;;
6517;SDS011;3292;48.944;9.240;2022-12-18T12:14:35;49.80;;;27.87;;
6517;SDS011;3292;48.944;9.240;2022-12-18T12:17:12;44.43;;;27.13;;
6517;SDS011;3292;48.944;9.240;2022-12-18T12:19:46;46.00;;;26.53;;
6517;SDS011;3292;48.944;9.240;2022-12-18T12:22:23;46.03;;;27.13;;
6517;SDS011;3292;48.944;9.240;2022-12-18T12:25:01;43.93;;;25.17;;
6517;SDS011;3292;48.944;9.240;2022-12-18T12:27:43;43.40;;;26.03;;
6517;SDS011;3292;48.944;9.240;2022-12-18T12:30:18;48.30;;;26.83;;
6517;SDS011;3292;48.944;9.240;2022-12-18T12:32:53;45.07;;;25.57;;
6517;SDS011;3292;48.944;9.240;2022-12-18T12:35:30;40.67;;;23.17;;
6517;SDS011;3292;48.944;9.240;2022-12-18T12:38:05;45.93;;;24.33;;
6517;SDS011;3292;48.944;9.240;2022-12-18T12:40:37;44.67;;;25.47;;
6517;SDS011;3292;48.944;9.240;2022-12-18T12:43:16;42.60;;;24.43;;
6517;SDS011;3292;48.944;9.240;2022-12-18T12:45:48;38.77;;;24.20;;
6517;SDS011;3292;48.944;9.240;2022-12-18T12:51:08;40.67;;;23.87;;
6517;SDS011;3292;48.944;9.240;2022-12-18T12:53:39;40.43;;;23.87;;
6517;SDS011;3292;48.944;9.240;2022-12-18T12:56:08;35.17;;;22.67;;
6517;SDS011;3292;48.944;9.240;2022-12-18T12:58:41;43.03;;;26.37;;
6517;SDS011;3292;48.944;9.240;2022-12-18T13:01:23;34.73;;;22.47;;
6517;SDS011;3292;48.944;9.240;2022-12-18T13:04:00;38.83;;;22.07;;
6517;SDS011;3292;48.944;9.240;2022-12-18T13:06:36;40.33;;;22.03;;
6517;SDS011;3292;48.944;9.240;2022-12-18T13:09:08;41.83;;;23.90;;
6517;SDS011;3292;48.944;9.240;2022-12-18T13:11:36;42.27;;;24.03;;
6517;SDS011;3292;48.944;9.240;2022-12-18T13:14:28;40.87;;;23.67;;
6517;SDS011;3292;48.944;9.240;2022-12-18T13:22:46;37.57;;;20.97;;
6517;SDS011;3292;48.944;9.240;2022-12-18T13:25:31;37.43;;;23.13;;
6517;SDS011;3292;48.944;9.240;2022-12-18T13:28:04;38.63;;;23.20;;
6517;SDS011;3292;48.944;9.240;2022-12-18T13:30:48;38.20;;;21.83;;
6517;SDS011;3292;48.944;9.240;2022-12-18T13:36:15;36.73;;;21.47;;
6517;SDS011;3292;48.944;9.240;2022-12-18T13:39:10;40.50;;;23.23;;
6517;SDS011;3292;48.944;9.240;2022-12-18T13:45:40;36.67;;;21.90;;
6517;SDS011;3292;48.944;9.240;2022-12-18T13:48:18;40.17;;;22.97;;
6517;SDS011;3292;48.944;9.240;2022-12-18T13:50:53;36.67;;;22.00;;
6517;SDS011;3292;48.944;9.240;2022-12-18T13:53:25;35.97;;;22.77;;
6517;SDS011;3292;48.944;9.240;2022-12-18T13:55:54;37.33;;;22.23;;
6517;SDS011;3292;48.944;9.240;2022-12-18T13:58:21;39.73;;;23.17;;
6517;SDS011;3292;48.944;9.240;2022-12-18T14:00:48;38.67;;;21.97;;
6517;SDS011;3292;48.944;9.240;2022-12-18T14:03:16;37.73;;;22.13;;
6517;SDS011;3292;48.944;9.240;2022-12-18T14:05:46;38.63;;;22.03;;
6517;SDS011;3292;48.944;9.240;2022-12-18T14:08:21;35.23;;;20.80;;
6517;SDS011;3292;48.944;9.240;2022-12-18T14:10:51;37.73;;;22.70;;
6517;SDS011;3292;48.944;9.240;2022-12-18T14:13:23;40.23;;;23.27;;
6517;SDS011;3292;48.944;9.240;2022-12-18T14:15:52;38.60;;;24.23;;
6517;SDS011;3292;48.944;9.240;2022-12-18T14:18:23;36.37;;;23.53;;
6517;SDS011;3292;48.944;9.240;2022-12-18T14:20:51;40.80;;;23.43;;
6517;SDS011;3292;48.944;9.240;2022-12-18T14:23:27;39.90;;;24.03;;
6517;SDS011;3292;48.944;9.240;2022-12-18T14:25:55;39.60;;;24.53;;
6517;SDS011;3292;48.944;9.240;2022-12-18T14:28:22;39.13;;;22.77;;
6517;SDS011;3292;48.944;9.240;2022-12-18T14:30:51;39.17;;;23.87;;
6517;SDS011;3292;48.944;9.240;2022-12-18T14:33:20;41.70;;;23.70;;
6517;SDS011;3292;48.944;9.240;2022-12-18T14:35:53;37.47;;;22.73;;
6517;SDS011;3292;48.944;9.240;2022-12-18T14:38:24;39.63;;;23.20;;
6517;SDS011;3292;48.944;9.240;2022-12-18T14:40:56;38.87;;;22.17;;
6517;SDS011;3292;48.944;9.240;2022-12-18T14:43:24;41.57;;;23.27;;
6517;SDS011;3292;48.944;9.240;2022-12-18T14:45:52;41.93;;;24.03;;
6517;SDS011;3292;48.944;9.240;2022-12-18T14:48:20;44.17;;;24.90;;
6517;SDS011;3292;48.944;9.240;2022-12-18T14:50:57;39.37;;;23.90;;
6517;SDS011;3292;48.944;9.240;2022-12-18T14:53:32;40.60;;;22.80;;
6517;SDS011;3292;48.944;9.240;2022-12-18T14:56:04;37.70;;;22.33;;
6517;SDS011;3292;48.944;9.240;2022-12-18T14:58:43;37.40;;;21.90;;
6517;SDS011;3292;48.944;9.240;2022-12-18T15:01:17;36.10;;;22.13;;
6517;SDS011;3292;48.944;9.240;2022-12-18T15:03:46;39.53;;;22.30;;
6517;SDS011;3292;48.944;9.240;2022-12-18T15:06:17;40.07;;;23.47;;
6517;SDS011;3292;48.944;9.240;2022-12-18T15:08:50;40.17;;;22.67;;
6517;SDS011;3292;48.944;9.240;2022-12-18T15:14:28;38.50;;;22.57;;
6517;SDS011;3292;48.944;9.240;2022-12-18T15:16:59;39.07;;;22.80;;
6517;SDS011;3292;48.944;9.240;2022-12-18T15:19:31;40.03;;;22.93;;
6517;SDS011;3292;48.944;9.240;2022-12-18T15:22:01;39.57;;;23.13;;
6517;SDS011;3292;48.944;9.240;2022-12-18T15:24:29;36.77;;;22.63;;
6517;SDS011;3292;48.944;9.240;2022-12-18T15:26:58;37.97;;;22.33;;
6517;SDS011;3292;48.944;9.240;2022-12-18T15:29:25;38.43;;;23.03;;
6517;SDS011;3292;48.944;9.240;2022-12-18T15:31:59;37.57;;;21.83;;
6517;SDS011;3292;48.944;9.240;2022-12-18T15:34:27;36.77;;;20.73;;